Time;durP1;ratioP1;P1;durP2;ratioP2;P2;SDS_P1;SDS_P2;PMS_P1;PMS_P2;Temp;Humidity;BMP_temperature;BMP_pressure;BME280_temperature;BME280_humidity;BME280_pressure;Samples;Min_cycle;Max_cycle;Signal;HPM_P1;HPM_P2
2021/07/08 00:02:22;;;;;;;2.72;1.73;;;;;;;;;;4949462;28;20051;-84
2021/07/08 00:04:49;;;;;;;4.03;1.80;;;;;;;;;;4949344;28;20058;-85
2021/07/08 00:07:15;;;;;;;3.90;1.75;;;;;;;;;;4950581;28;20035;-85
2021/07/08 00:09:51;;;;;;;3.38;1.83;;;;;;;;;;4946365;28;20090;-84
2021/07/08 00:12:21;;;;;;;4.40;1.80;;;;;;;;;;4942328;28;20054;-84
2021/07/08 00:14:47;;;;;;;4.90;1.88;;;;;;;;;;4952788;28;20605;-84
2021/07/08 00:17:14;;;;;;;2.67;1.50;;;;;;;;;;4951938;28;20134;-84
2021/07/08 00:19:40;;;;;;;2.30;1.70;;;;;;;;;;4950371;28;20086;-84
2021/07/08 00:22:06;;;;;;;3.63;1.80;;;;;;;;;;4948620;28;20066;-84
2021/07/08 00:24:33;;;;;;;3.05;1.60;;;;;;;;;;4945895;28;20093;-85
2021/07/08 00:26:59;;;;;;;2.42;1.60;;;;;;;;;;4945595;28;20070;-87
2021/07/08 00:29:26;;;;;;;4.43;1.70;;;;;;;;;;4949437;28;20070;-87
2021/07/08 00:31:52;;;;;;;2.95;1.85;;;;;;;;;;4945923;28;20751;-86
2021/07/08 00:34:18;;;;;;;4.85;1.88;;;;;;;;;;4949448;28;20054;-85
2021/07/08 00:36:45;;;;;;;2.35;1.45;;;;;;;;;;4951458;28;20124;-87
2021/07/08 00:39:11;;;;;;;3.70;1.80;;;;;;;;;;4950125;28;20059;-86
2021/07/08 00:41:38;;;;;;;3.28;1.58;;;;;;;;;;4947629;28;20059;-86
2021/07/08 00:44:04;;;;;;;5.13;2.00;;;;;;;;;;4940057;28;20062;-85
2021/07/08 00:46:31;;;;;;;2.80;1.60;;;;;;;;;;4951976;28;20067;-85
2021/07/08 00:48:57;;;;;;;4.38;1.80;;;;;;;;;;4949549;28;20055;-84
2021/07/08 00:51:24;;;;;;;3.95;1.75;;;;;;;;;;4950853;28;20047;-84
2021/07/08 00:53:50;;;;;;;3.38;1.80;;;;;;;;;;4949812;28;20531;-84
2021/07/08 00:56:17;;;;;;;2.70;1.88;;;;;;;;;;4946700;28;20063;-84
2021/07/08 00:58:47;;;;;;;3.47;2.17;;;;;;;;;;4940769;28;20162;-84
2021/07/08 01:01:13;;;;;;;3.88;1.95;;;;;;;;;;4942585;28;20031;-84
2021/07/08 01:03:40;;;;;;;2.35;1.70;;;;;;;;;;4947987;28;20043;-84
2021/07/08 01:06:06;;;;;;;2.50;1.80;;;;;;;;;;4947925;28;20121;-85
2021/07/08 01:08:33;;;;;;;5.75;1.90;;;;;;;;;;4947330;28;20067;-86
2021/07/08 01:10:59;;;;;;;3.20;1.70;;;;;;;;;;4946068;28;20122;-87
2021/07/08 01:13:26;;;;;;;4.57;1.70;;;;;;;;;;4948685;28;20441;-86
2021/07/08 01:15:52;;;;;;;1.65;1.40;;;;;;;;;;4947062;28;20070;-87
2021/07/08 01:18:18;;;;;;;3.33;1.70;;;;;;;;;;4947799;28;20074;-89
2021/07/08 01:20:45;;;;;;;4.80;1.70;;;;;;;;;;4948712;28;20055;-87
2021/07/08 01:23:12;;;;;;;2.28;1.67;;;;;;;;;;4944307;28;20066;-87
2021/07/08 01:25:41;;;;;;;3.75;1.38;;;;;;;;;;4945390;28;20443;-87
2021/07/08 01:28:10;;;;;;;3.42;1.75;;;;;;;;;;4942924;28;20083;-84
2021/07/08 01:30:36;;;;;;;3.53;1.83;;;;;;;;;;4949626;28;20065;-85
2021/07/08 01:33:04;;;;;;;4.68;1.70;;;;;;;;;;4949432;28;20043;-85
2021/07/08 01:35:30;;;;;;;3.28;1.73;;;;;;;;;;4949264;28;20050;-84
2021/07/08 01:37:56;;;;;;;2.85;1.67;;;;;;;;;;4949619;28;20071;-89
2021/07/08 01:40:23;;;;;;;4.90;1.70;;;;;;;;;;4947046;28;20055;-85
2021/07/08 01:42:50;;;;;;;2.72;1.50;;;;;;;;;;4945075;28;20061;-84
2021/07/08 01:45:17;;;;;;;3.88;1.42;;;;;;;;;;4942074;28;20516;-81
2021/07/08 01:47:45;;;;;;;4.53;1.65;;;;;;;;;;4947184;28;21241;-86
2021/07/08 01:50:13;;;;;;;3.25;1.67;;;;;;;;;;4947981;28;20522;-85
2021/07/08 01:52:40;;;;;;;3.60;1.58;;;;;;;;;;4948009;28;20055;-87
2021/07/08 01:55:06;;;;;;;3.38;1.90;;;;;;;;;;4950278;28;20062;-86
2021/07/08 01:57:33;;;;;;;2.38;1.50;;;;;;;;;;4947957;28;20452;-85
2021/07/08 01:59:59;;;;;;;3.67;1.60;;;;;;;;;;4946790;28;20063;-85
2021/07/08 02:02:25;;;;;;;2.97;1.70;;;;;;;;;;4949725;28;20065;-85
2021/07/08 02:04:52;;;;;;;3.35;1.80;;;;;;;;;;4946409;28;20468;-85
2021/07/08 02:07:18;;;;;;;3.38;1.85;;;;;;;;;;4946257;28;20485;-85
2021/07/08 02:09:45;;;;;;;4.32;1.70;;;;;;;;;;4947422;28;20108;-87
2021/07/08 02:12:11;;;;;;;3.35;1.80;;;;;;;;;;4939678;28;20440;-84
2021/07/08 02:14:37;;;;;;;3.47;1.70;;;;;;;;;;4948395;28;20495;-84
2021/07/08 02:17:04;;;;;;;3.33;1.83;;;;;;;;;;4943656;28;20439;-84
2021/07/08 02:19:30;;;;;;;2.90;1.85;;;;;;;;;;4948140;28;20069;-84
2021/07/08 02:21:57;;;;;;;2.58;1.90;;;;;;;;;;4943798;28;20133;-84
2021/07/08 02:24:23;;;;;;;3.60;2.00;;;;;;;;;;4942327;28;20063;-85
2021/07/08 02:26:50;;;;;;;3.53;1.92;;;;;;;;;;4949854;28;21078;-85
2021/07/08 02:29:16;;;;;;;5.70;1.95;;;;;;;;;;4950789;28;20039;-84
2021/07/08 02:31:42;;;;;;;2.72;1.85;;;;;;;;;;4948291;28;21154;-83
2021/07/08 02:34:09;;;;;;;3.75;1.83;;;;;;;;;;4947746;28;20507;-83
2021/07/08 02:36:35;;;;;;;4.88;1.88;;;;;;;;;;4950120;28;20066;-84
2021/07/08 02:39:02;;;;;;;2.35;1.73;;;;;;;;;;4961643;28;20082;-84
2021/07/08 02:41:28;;;;;;;3.08;1.70;;;;;;;;;;4948413;28;21348;-83
2021/07/08 02:43:55;;;;;;;2.67;1.63;;;;;;;;;;4950031;28;20309;-82
2021/07/08 02:46:21;;;;;;;3.30;1.73;;;;;;;;;;4941279;28;20063;-83
2021/07/08 02:48:47;;;;;;;2.97;1.58;;;;;;;;;;4955597;28;20066;-82
2021/07/08 02:51:14;;;;;;;3.35;2.08;;;;;;;;;;4950327;28;20063;-82
2021/07/08 02:53:40;;;;;;;3.05;1.70;;;;;;;;;;4944767;28;20040;-83
2021/07/08 02:56:07;;;;;;;2.72;1.80;;;;;;;;;;4944994;28;20063;-83
2021/07/08 02:58:33;;;;;;;2.60;1.70;;;;;;;;;;4947846;28;20036;-83
2021/07/08 03:00:59;;;;;;;4.57;1.90;;;;;;;;;;4950524;28;20054;-85
2021/07/08 03:03:26;;;;;;;3.03;1.80;;;;;;;;;;4948566;28;20489;-85
2021/07/08 03:05:52;;;;;;;3.80;1.67;;;;;;;;;;4953482;28;20546;-84
2021/07/08 03:08:19;;;;;;;4.43;1.92;;;;;;;;;;4949064;28;20079;-85
2021/07/08 03:10:45;;;;;;;3.45;1.90;;;;;;;;;;4950499;28;20058;-85
2021/07/08 03:13:12;;;;;;;3.30;2.00;;;;;;;;;;4947119;28;20043;-85
2021/07/08 03:15:38;;;;;;;2.35;1.85;;;;;;;;;;4948962;28;20059;-85
2021/07/08 03:18:04;;;;;;;2.67;1.90;;;;;;;;;;4947330;28;20055;-85
2021/07/08 03:20:34;;;;;;;3.38;2.10;;;;;;;;;;4940939;28;20059;-86
2021/07/08 03:23:01;;;;;;;5.00;1.90;;;;;;;;;;4941829;28;20059;-83
2021/07/08 03:25:29;;;;;;;3.70;1.90;;;;;;;;;;4945987;28;20078;-84
2021/07/08 03:27:56;;;;;;;4.40;1.80;;;;;;;;;;4949466;28;20044;-84
2021/07/08 03:30:24;;;;;;;3.60;1.90;;;;;;;;;;4951865;28;20108;-85
2021/07/08 03:32:52;;;;;;;3.92;2.08;;;;;;;;;;4945580;28;20070;-85
2021/07/08 03:35:18;;;;;;;2.60;1.90;;;;;;;;;;4926422;28;20066;-86
2021/07/08 03:37:45;;;;;;;2.75;1.80;;;;;;;;;;4943180;28;20056;-87
2021/07/08 03:40:13;;;;;;;5.07;2.05;;;;;;;;;;4945267;28;20068;-86
2021/07/08 03:42:40;;;;;;;3.22;1.88;;;;;;;;;;4942602;28;20055;-85
2021/07/08 03:45:07;;;;;;;3.42;2.08;;;;;;;;;;4947332;28;20519;-85
2021/07/08 03:47:33;;;;;;;2.75;1.85;;;;;;;;;;4953002;28;20134;-81
2021/07/08 03:50:00;;;;;;;4.30;2.00;;;;;;;;;;4953245;28;20039;-84
2021/07/08 03:52:26;;;;;;;4.28;1.90;;;;;;;;;;4947569;28;20066;-83
2021/07/08 03:54:53;;;;;;;4.95;1.95;;;;;;;;;;4950818;28;20078;-81
2021/07/08 03:57:19;;;;;;;3.10;2.00;;;;;;;;;;4946018;28;20526;-83
2021/07/08 03:59:45;;;;;;;3.72;1.90;;;;;;;;;;4951182;28;20141;-84
2021/07/08 04:02:12;;;;;;;2.88;2.00;;;;;;;;;;4950350;28;20061;-85
2021/07/08 04:04:38;;;;;;;3.50;2.08;;;;;;;;;;4950946;28;20518;-84
2021/07/08 04:07:08;;;;;;;2.83;1.95;;;;;;;;;;4952416;28;20085;-84
2021/07/08 04:09:34;;;;;;;3.20;1.80;;;;;;;;;;4948692;28;20055;-83
2021/07/08 04:12:04;;;;;;;3.13;1.70;;;;;;;;;;4953386;28;20054;-84
2021/07/08 04:14:30;;;;;;;3.67;1.90;;;;;;;;;;4950144;28;20059;-84
2021/07/08 04:16:56;;;;;;;5.65;2.20;;;;;;;;;;4952594;28;20605;-86
2021/07/08 04:19:23;;;;;;;4.10;2.28;;;;;;;;;;4951119;28;20066;-85
2021/07/08 04:21:49;;;;;;;3.67;2.00;;;;;;;;;;4950689;28;20071;-85
2021/07/08 04:24:16;;;;;;;4.50;2.20;;;;;;;;;;4951837;28;20082;-85
2021/07/08 04:26:42;;;;;;;5.47;1.83;;;;;;;;;;4948330;28;20071;-85
2021/07/08 04:29:09;;;;;;;4.22;2.15;;;;;;;;;;4946200;28;20522;-86
2021/07/08 04:31:35;;;;;;;4.00;2.17;;;;;;;;;;4951800;28;20059;-86
2021/07/08 04:34:01;;;;;;;3.17;1.73;;;;;;;;;;4947237;28;20031;-86
2021/07/08 04:36:28;;;;;;;4.72;2.40;;;;;;;;;;4951341;28;20102;-85
2021/07/08 04:38:54;;;;;;;4.22;2.05;;;;;;;;;;4951420;28;20066;-85
2021/07/08 04:41:21;;;;;;;4.03;2.10;;;;;;;;;;4948485;28;20121;-85
2021/07/08 04:43:47;;;;;;;3.88;2.15;;;;;;;;;;4944856;28;20055;-85
2021/07/08 04:46:15;;;;;;;5.70;2.20;;;;;;;;;;4950730;28;20122;-84
2021/07/08 04:48:42;;;;;;;2.88;2.03;;;;;;;;;;4948071;28;20063;-85
2021/07/08 04:51:09;;;;;;;3.95;1.90;;;;;;;;;;4948360;28;20111;-85
2021/07/08 04:53:36;;;;;;;2.97;1.73;;;;;;;;;;4948510;28;20074;-85
2021/07/08 04:56:02;;;;;;;4.93;2.03;;;;;;;;;;4951003;28;20063;-85
2021/07/08 04:58:30;;;;;;;4.60;2.13;;;;;;;;;;4950455;28;20459;-84
2021/07/08 05:00:56;;;;;;;2.97;1.90;;;;;;;;;;4947898;28;20063;-83
2021/07/08 05:03:22;;;;;;;3.17;2.05;;;;;;;;;;4949146;28;20062;-82
2021/07/08 05:05:49;;;;;;;4.28;2.20;;;;;;;;;;4957909;28;20129;-84
2021/07/08 05:08:16;;;;;;;3.70;2.17;;;;;;;;;;4949363;28;20075;-84
2021/07/08 05:10:42;;;;;;;4.82;2.00;;;;;;;;;;4948993;28;20091;-89
2021/07/08 05:13:09;;;;;;;3.30;1.98;;;;;;;;;;4947245;28;20066;-88
2021/07/08 05:15:37;;;;;;;6.63;2.15;;;;;;;;;;4950596;28;20084;-90
2021/07/08 05:18:04;;;;;;;5.75;1.90;;;;;;;;;;4944623;28;20071;-88
2021/07/08 05:20:30;;;;;;;4.13;2.08;;;;;;;;;;4946035;28;20082;-88
2021/07/08 05:23:00;;;;;;;3.85;2.10;;;;;;;;;;4949721;28;20138;-88
2021/07/08 05:25:27;;;;;;;3.05;2.30;;;;;;;;;;4944731;28;20070;-88
2021/07/08 05:27:54;;;;;;;5.65;2.28;;;;;;;;;;4947077;28;20075;-89
2021/07/08 05:30:21;;;;;;;5.47;2.30;;;;;;;;;;4946405;28;20317;-88
2021/07/08 05:32:47;;;;;;;3.13;1.80;;;;;;;;;;4950878;28;20059;-86
2021/07/08 05:35:14;;;;;;;3.85;2.03;;;;;;;;;;4949238;28;20070;-86
2021/07/08 05:37:40;;;;;;;3.10;1.58;;;;;;;;;;4942248;28;20047;-85
2021/07/08 05:40:07;;;;;;;2.40;1.70;;;;;;;;;;4945948;28;20055;-85
2021/07/08 05:42:36;;;;;;;3.45;1.95;;;;;;;;;;4947752;28;20062;-85
2021/07/08 05:45:03;;;;;;;2.95;1.60;;;;;;;;;;4950424;28;20516;-84
2021/07/08 05:47:29;;;;;;;3.65;2.13;;;;;;;;;;4938601;28;20078;-85
2021/07/08 05:49:56;;;;;;;4.68;2.00;;;;;;;;;;4945311;28;20059;-82
2021/07/08 05:52:22;;;;;;;2.47;1.95;;;;;;;;;;4948623;28;20098;-84
2021/07/08 05:54:49;;;;;;;5.22;1.95;;;;;;;;;;4950179;28;20067;-86
2021/07/08 05:57:15;;;;;;;2.63;1.98;;;;;;;;;;4941095;28;20055;-81
2021/07/08 05:59:41;;;;;;;4.88;2.65;;;;;;;;;;4943588;28;20065;-82
2021/07/08 06:02:08;;;;;;;5.85;2.30;;;;;;;;;;4946778;28;20062;-83
2021/07/08 06:04:34;;;;;;;3.10;1.77;;;;;;;;;;4947453;28;20071;-84
2021/07/08 06:07:01;;;;;;;5.63;2.30;;;;;;;;;;4949571;28;20134;-84
2021/07/08 06:09:27;;;;;;;3.30;1.70;;;;;;;;;;4949613;28;20051;-84
2021/07/08 06:11:53;;;;;;;3.35;1.90;;;;;;;;;;4948698;28;20075;-85
2021/07/08 06:14:20;;;;;;;3.13;1.80;;;;;;;;;;4949656;28;20078;-84
2021/07/08 06:16:46;;;;;;;4.07;2.20;;;;;;;;;;4941932;28;20449;-85
2021/07/08 06:19:13;;;;;;;5.95;2.00;;;;;;;;;;4946317;28;20071;-83
2021/07/08 06:21:39;;;;;;;3.60;1.70;;;;;;;;;;4943628;28;20058;-82
2021/07/08 06:24:08;;;;;;;2.45;1.60;;;;;;;;;;4940285;28;20078;-83
2021/07/08 06:26:35;;;;;;;5.70;2.20;;;;;;;;;;4936809;28;20063;-82
2021/07/08 06:29:01;;;;;;;3.45;1.77;;;;;;;;;;4940487;28;20081;-78
2021/07/08 06:31:28;;;;;;;2.72;2.10;;;;;;;;;;4943603;28;20067;-74
2021/07/08 06:33:54;;;;;;;2.90;1.50;;;;;;;;;;4952881;28;20533;-74
2021/07/08 06:36:20;;;;;;;5.57;2.40;;;;;;;;;;4944151;28;20496;-74
2021/07/08 06:38:47;;;;;;;4.30;1.88;;;;;;;;;;4941828;28;20187;-75
2021/07/08 06:41:13;;;;;;;4.13;2.13;;;;;;;;;;4935416;28;20085;-74
2021/07/08 06:43:40;;;;;;;6.45;2.50;;;;;;;;;;4941317;28;20055;-74
2021/07/08 06:46:07;;;;;;;2.88;1.80;;;;;;;;;;4946402;28;20258;-75
2021/07/08 06:48:34;;;;;;;5.25;2.08;;;;;;;;;;4943500;28;20070;-75
2021/07/08 06:51:00;;;;;;;5.15;1.90;;;;;;;;;;4949296;28;20050;-75
2021/07/08 06:53:27;;;;;;;3.53;1.92;;;;;;;;;;4937266;28;20063;-76
2021/07/08 06:55:53;;;;;;;4.18;2.40;;;;;;;;;;4939840;28;20095;-75
2021/07/08 06:58:20;;;;;;;3.95;2.72;;;;;;;;;;4936498;28;20060;-74
2021/07/08 07:00:46;;;;;;;3.38;2.00;;;;;;;;;;4947258;28;20098;-81
2021/07/08 07:03:13;;;;;;;3.90;1.90;;;;;;;;;;4931643;28;20167;-80
2021/07/08 07:05:39;;;;;;;3.38;2.10;;;;;;;;;;4932075;28;20055;-84
2021/07/08 07:08:06;;;;;;;3.60;2.13;;;;;;;;;;4936152;28;20059;-81
2021/07/08 07:10:33;;;;;;;2.65;2.17;;;;;;;;;;4940409;28;20066;-82
2021/07/08 07:13:01;;;;;;;4.90;1.88;;;;;;;;;;4935205;28;20535;-82
2021/07/08 07:15:28;;;;;;;3.47;2.45;;;;;;;;;;4944790;28;20066;-79
2021/07/08 07:17:56;;;;;;;2.80;2.25;;;;;;;;;;4942313;28;20047;-81
2021/07/08 07:20:23;;;;;;;3.92;2.17;;;;;;;;;;4948722;28;20111;-81
2021/07/08 07:22:49;;;;;;;7.60;2.13;;;;;;;;;;4952127;28;20094;-82
2021/07/08 07:25:17;;;;;;;3.75;2.03;;;;;;;;;;4950763;28;20067;-80
2021/07/08 07:27:45;;;;;;;3.90;2.10;;;;;;;;;;4945826;28;21187;-80
2021/07/08 07:30:12;;;;;;;3.15;2.10;;;;;;;;;;4956869;28;20062;-80
2021/07/08 07:32:38;;;;;;;3.90;2.08;;;;;;;;;;4947247;28;21400;-82
2021/07/08 07:35:05;;;;;;;4.93;2.35;;;;;;;;;;4946764;28;20102;-80
2021/07/08 07:37:31;;;;;;;3.22;2.00;;;;;;;;;;4942774;28;20054;-81
2021/07/08 07:39:58;;;;;;;3.63;2.33;;;;;;;;;;4941517;28;20059;-81
2021/07/08 07:42:25;;;;;;;3.45;1.90;;;;;;;;;;4944725;28;20074;-79
2021/07/08 07:44:51;;;;;;;3.22;2.00;;;;;;;;;;4948659;28;20071;-81
2021/07/08 07:47:18;;;;;;;3.67;2.13;;;;;;;;;;4941866;28;20519;-81
2021/07/08 07:49:44;;;;;;;3.40;2.28;;;;;;;;;;4944976;28;21351;-81
2021/07/08 07:52:16;;;;;;;3.65;2.00;;;;;;;;;;4951558;28;20063;-80
2021/07/08 07:54:42;;;;;;;4.85;2.58;;;;;;;;;;4949953;28;20070;-80
2021/07/08 07:57:09;;;;;;;4.15;2.20;;;;;;;;;;4948883;28;20044;-81
2021/07/08 07:59:36;;;;;;;3.88;2.08;;;;;;;;;;4942072;28;20567;-82
2021/07/08 08:02:02;;;;;;;4.63;2.20;;;;;;;;;;4947078;28;20044;-83
2021/07/08 08:04:31;;;;;;;4.35;2.05;;;;;;;;;;4949978;28;20070;-84
2021/07/08 08:09:43;;;;;;;6.43;2.70;;;;;;;;;;4939797;28;20516;-84
2021/07/08 08:12:10;;;;;;;6.13;2.40;;;;;;;;;;4946026;28;20511;-84
2021/07/08 08:14:36;;;;;;;4.60;2.10;;;;;;;;;;4947880;28;20134;-84
2021/07/08 08:17:03;;;;;;;4.15;2.50;;;;;;;;;;4949607;28;20063;-86
2021/07/08 08:19:29;;;;;;;3.40;2.35;;;;;;;;;;4941477;28;20126;-86
2021/07/08 08:21:56;;;;;;;4.50;2.70;;;;;;;;;;4941435;28;20063;-84
2021/07/08 08:24:22;;;;;;;4.28;2.45;;;;;;;;;;4944592;28;20035;-81
2021/07/08 08:26:51;;;;;;;3.92;2.47;;;;;;;;;;4949083;28;20090;-81
2021/07/08 08:29:21;;;;;;;5.90;2.65;;;;;;;;;;4946214;28;20040;-81
2021/07/08 08:31:47;;;;;;;4.90;2.70;;;;;;;;;;4945047;28;20070;-81
2021/07/08 08:34:14;;;;;;;4.38;2.70;;;;;;;;;;4947741;28;20133;-81
2021/07/08 08:36:41;;;;;;;4.10;2.83;;;;;;;;;;4943394;28;20122;-82
2021/07/08 08:39:07;;;;;;;3.63;2.50;;;;;;;;;;4942483;28;20062;-81
2021/07/08 08:41:34;;;;;;;5.25;2.35;;;;;;;;;;4941192;28;20118;-81
2021/07/08 08:44:00;;;;;;;3.20;2.53;;;;;;;;;;4939486;28;20159;-83
2021/07/08 08:46:27;;;;;;;3.80;2.70;;;;;;;;;;4938310;28;20559;-81
2021/07/08 08:48:54;;;;;;;4.43;2.50;;;;;;;;;;4938621;28;20532;-82
2021/07/08 08:51:20;;;;;;;4.85;2.58;;;;;;;;;;4935727;28;20116;-80
2021/07/08 08:53:47;;;;;;;4.35;2.65;;;;;;;;;;4936835;28;20059;-82
2021/07/08 08:56:13;;;;;;;4.07;2.60;;;;;;;;;;4948156;28;20074;-85
2021/07/08 08:58:39;;;;;;;4.30;2.60;;;;;;;;;;4945821;28;20066;-85
2021/07/08 09:01:07;;;;;;;3.30;2.70;;;;;;;;;;4950203;28;20496;-85
2021/07/08 09:03:34;;;;;;;4.47;2.60;;;;;;;;;;4938684;28;20114;-86
2021/07/08 09:06:06;;;;;;;5.78;2.67;;;;;;;;;;4942882;28;20599;-85
2021/07/08 09:08:33;;;;;;;5.63;2.55;;;;;;;;;;4940341;28;20087;-81
2021/07/08 09:11:03;;;;;;;4.20;2.22;;;;;;;;;;4940732;28;20059;-82
2021/07/08 09:13:50;;;;;;;6.43;2.30;;;;;;;;;;4939100;28;20062;-82
2021/07/08 09:16:18;;;;;;;4.45;2.42;;;;;;;;;;4931114;28;20062;-82
2021/07/08 09:18:55;;;;;;;5.13;2.50;;;;;;;;;;4941539;28;22173;-82
2021/07/08 09:21:22;;;;;;;4.90;2.42;;;;;;;;;;4937025;28;20055;-82
2021/07/08 09:24:17;;;;;;;3.83;2.10;;;;;;;;;;4939591;28;20095;-82
2021/07/08 09:26:45;;;;;;;4.60;2.28;;;;;;;;;;4932406;28;21360;-82
2021/07/08 09:29:19;;;;;;;4.30;2.17;;;;;;;;;;4936382;28;20110;-82
2021/07/08 09:31:53;;;;;;;3.03;2.20;;;;;;;;;;4936246;28;20530;-82
2021/07/08 09:34:27;;;;;;;3.75;2.22;;;;;;;;;;4935857;28;20056;-82
2021/07/08 09:37:16;;;;;;;3.97;2.30;;;;;;;;;;4941463;28;20091;-81
2021/07/08 09:39:42;;;;;;;3.13;1.70;;;;;;;;;;4939241;28;20128;-81
2021/07/08 09:42:10;;;;;;;3.03;1.50;;;;;;;;;;4938735;28;20047;-84
2021/07/08 09:44:37;;;;;;;3.10;1.98;;;;;;;;;;4940718;28;20126;-82
2021/07/08 09:47:03;;;;;;;3.78;2.00;;;;;;;;;;4942672;28;20062;-81
2021/07/08 09:49:30;;;;;;;4.07;1.83;;;;;;;;;;4941897;28;20079;-81
2021/07/08 09:51:57;;;;;;;2.53;1.90;;;;;;;;;;4939172;28;20508;-81
2021/07/08 09:54:50;;;;;;;2.38;1.63;;;;;;;;;;4935439;28;20079;-81
2021/07/08 09:57:34;;;;;;;1.88;1.65;;;;;;;;;;4936371;28;20146;-81
2021/07/08 10:00:01;;;;;;;4.43;1.90;;;;;;;;;;4938053;28;20171;-81
2021/07/08 10:02:32;;;;;;;1.90;1.70;;;;;;;;;;4938490;28;20086;-80
2021/07/08 10:04:59;;;;;;;3.08;1.98;;;;;;;;;;4936589;28;20071;-83
2021/07/08 10:07:26;;;;;;;2.50;2.08;;;;;;;;;;4937171;28;20068;-81
2021/07/08 10:09:53;;;;;;;4.72;2.00;;;;;;;;;;4939314;28;20071;-82
2021/07/08 10:12:19;;;;;;;3.63;2.20;;;;;;;;;;4945573;28;20087;-77
2021/07/08 10:14:47;;;;;;;3.60;2.13;;;;;;;;;;4947017;28;20031;-83
2021/07/08 10:17:16;;;;;;;2.40;1.55;;;;;;;;;;4937135;28;20071;-82
2021/07/08 10:19:44;;;;;;;2.78;1.90;;;;;;;;;;4937580;28;20055;-81
2021/07/08 10:22:10;;;;;;;2.45;2.05;;;;;;;;;;4947912;28;20109;-83
2021/07/08 10:24:37;;;;;;;3.20;2.30;;;;;;;;;;4947880;28;20059;-83
2021/07/08 10:27:06;;;;;;;3.42;2.13;;;;;;;;;;4940124;28;20066;-83
2021/07/08 10:29:33;;;;;;;2.63;1.80;;;;;;;;;;4935946;28;20058;-82
2021/07/08 10:32:00;;;;;;;3.33;2.10;;;;;;;;;;4947754;28;20070;-82
2021/07/08 10:34:26;;;;;;;2.97;1.92;;;;;;;;;;4948268;28;20062;-83
2021/07/08 10:36:54;;;;;;;3.50;2.20;;;;;;;;;;4945216;28;20050;-87
2021/07/08 10:39:21;;;;;;;2.35;1.92;;;;;;;;;;4949170;28;20039;-84
2021/07/08 10:41:54;;;;;;;7.57;2.58;;;;;;;;;;4946437;28;20075;-87
2021/07/08 10:44:40;;;;;;;3.88;1.85;;;;;;;;;;4946626;28;20063;-82
2021/07/08 10:47:26;;;;;;;4.18;2.13;;;;;;;;;;4924959;28;20055;-78
2021/07/08 10:49:52;;;;;;;4.43;2.75;;;;;;;;;;4942931;28;21346;-79
2021/07/08 10:52:39;;;;;;;2.55;1.92;;;;;;;;;;4941280;28;20090;-82
2021/07/08 10:55:06;;;;;;;2.83;2.10;;;;;;;;;;4943375;28;21230;-79
2021/07/08 10:57:39;;;;;;;4.68;2.20;;;;;;;;;;4942426;28;20522;-81
2021/07/08 11:00:09;;;;;;;3.22;1.90;;;;;;;;;;4942986;28;20071;-82
2021/07/08 11:02:50;;;;;;;4.43;2.60;;;;;;;;;;4946246;28;20051;-81
2021/07/08 11:05:55;;;;;;;2.58;2.03;;;;;;;;;;4946849;28;20856;-80
2021/07/08 11:08:40;;;;;;;4.60;2.55;;;;;;;;;;4942840;28;21155;-78
2021/07/08 11:11:35;;;;;;;2.75;2.30;;;;;;;;;;4944560;28;20063;-79
2021/07/08 11:14:07;;;;;;;3.80;2.50;;;;;;;;;;4946270;28;20848;-79
2021/07/08 11:16:43;;;;;;;4.13;2.25;;;;;;;;;;4945848;28;20511;-79
2021/07/08 11:19:15;;;;;;;3.20;2.33;;;;;;;;;;4950875;28;20031;-81
2021/07/08 11:21:50;;;;;;;4.30;2.42;;;;;;;;;;4946446;28;20047;-79
2021/07/08 11:24:18;;;;;;;4.43;2.50;;;;;;;;;;4938555;28;20500;-79
2021/07/08 11:26:51;;;;;;;3.53;1.90;;;;;;;;;;4947762;28;22144;-79
2021/07/08 11:29:36;;;;;;;3.67;2.40;;;;;;;;;;4944344;28;20727;-79
2021/07/08 11:32:19;;;;;;;7.05;2.38;;;;;;;;;;4948966;28;21406;-80
2021/07/08 11:34:50;;;;;;;5.10;2.60;;;;;;;;;;4945915;28;21034;-79
2021/07/08 11:37:20;;;;;;;4.57;2.70;;;;;;;;;;4944977;28;20035;-80
2021/07/08 11:39:48;;;;;;;4.18;2.80;;;;;;;;;;4936020;28;20567;-79
2021/07/08 11:42:14;;;;;;;3.17;2.20;;;;;;;;;;4941352;28;20106;-80
2021/07/08 11:44:43;;;;;;;3.05;2.47;;;;;;;;;;4943976;28;20488;-79
2021/07/08 11:47:09;;;;;;;3.45;2.10;;;;;;;;;;4942452;28;20122;-81
2021/07/08 11:49:36;;;;;;;4.13;2.55;;;;;;;;;;4940938;28;20122;-79
2021/07/08 11:52:16;;;;;;;3.47;2.50;;;;;;;;;;4940656;28;20093;-79
2021/07/08 11:54:58;;;;;;;3.28;2.65;;;;;;;;;;4936647;28;20063;-79
2021/07/08 11:57:25;;;;;;;3.55;2.70;;;;;;;;;;4940906;28;20083;-78
2021/07/08 11:59:51;;;;;;;3.90;2.50;;;;;;;;;;4939341;28;20354;-79
2021/07/08 12:02:31;;;;;;;2.95;2.10;;;;;;;;;;4942980;28;20062;-80
2021/07/08 12:05:17;;;;;;;3.88;2.70;;;;;;;;;;4941735;28;21216;-81
2021/07/08 12:07:50;;;;;;;2.65;2.33;;;;;;;;;;4941153;28;20091;-80
2021/07/08 12:10:29;;;;;;;3.83;1.98;;;;;;;;;;4943675;28;20043;-78
2021/07/08 12:12:57;;;;;;;5.05;2.80;;;;;;;;;;4950050;28;20580;-80
2021/07/08 12:15:24;;;;;;;3.88;2.60;;;;;;;;;;4935605;28;20040;-80
2021/07/08 12:17:56;;;;;;;3.30;3.00;;;;;;;;;;4951394;28;20063;-79
2021/07/08 12:20:22;;;;;;;3.47;2.58;;;;;;;;;;4941661;28;20070;-78
2021/07/08 12:22:53;;;;;;;1.98;1.70;;;;;;;;;;4951728;28;20059;-79
2021/07/08 12:25:20;;;;;;;4.20;2.33;;;;;;;;;;4950605;28;20069;-78
2021/07/08 12:27:47;;;;;;;3.30;2.83;;;;;;;;;;4943593;28;21313;-77
2021/07/08 12:30:17;;;;;;;3.95;3.17;;;;;;;;;;4962692;28;20059;-78
2021/07/08 12:32:44;;;;;;;2.80;2.50;;;;;;;;;;4941469;28;20479;-79
2021/07/08 12:35:10;;;;;;;4.03;2.75;;;;;;;;;;4941259;28;20055;-77
2021/07/08 12:37:40;;;;;;;3.08;2.78;;;;;;;;;;4948917;28;20424;-78
2021/07/08 12:40:07;;;;;;;2.53;2.30;;;;;;;;;;4943970;28;20434;-78
2021/07/08 12:42:35;;;;;;;3.88;2.70;;;;;;;;;;4946836;28;20476;-77
2021/07/08 12:45:21;;;;;;;2.80;2.50;;;;;;;;;;4948010;28;20107;-77
2021/07/08 12:47:50;;;;;;;3.88;2.60;;;;;;;;;;4944093;28;20130;-78
2021/07/08 12:50:17;;;;;;;5.53;2.70;;;;;;;;;;4937731;28;20063;-77
2021/07/08 12:52:44;;;;;;;4.47;2.75;;;;;;;;;;4939608;28;20201;-79
2021/07/08 12:55:30;;;;;;;3.72;2.40;;;;;;;;;;4939161;28;20078;-76
2021/07/08 12:58:03;;;;;;;5.47;2.90;;;;;;;;;;4944734;28;20130;-78
2021/07/08 13:00:33;;;;;;;3.15;2.80;;;;;;;;;;4941021;28;20050;-78
2021/07/08 13:02:59;;;;;;;4.20;2.95;;;;;;;;;;4947711;28;20116;-78
2021/07/08 13:05:42;;;;;;;3.65;2.83;;;;;;;;;;4946520;28;20696;-78
2021/07/08 13:08:09;;;;;;;3.17;2.83;;;;;;;;;;4941337;28;20145;-79
2021/07/08 13:10:42;;;;;;;4.28;2.70;;;;;;;;;;4944072;28;20217;-79
2021/07/08 13:13:10;;;;;;;3.88;2.90;;;;;;;;;;4937169;28;20098;-79
2021/07/08 13:15:42;;;;;;;3.92;2.72;;;;;;;;;;4938098;28;20051;-78
2021/07/08 13:18:10;;;;;;;3.13;2.45;;;;;;;;;;4938128;28;20058;-79
2021/07/08 13:20:39;;;;;;;4.10;3.08;;;;;;;;;;4939776;28;20126;-78
2021/07/08 13:23:16;;;;;;;4.40;2.72;;;;;;;;;;4940731;28;20459;-79
2021/07/08 13:25:46;;;;;;;3.53;3.05;;;;;;;;;;4935499;28;20118;-78
2021/07/08 13:28:26;;;;;;;4.50;2.65;;;;;;;;;;4938761;28;20066;-79
2021/07/08 13:31:00;;;;;;;3.85;2.65;;;;;;;;;;4935142;28;22231;-77
2021/07/08 13:33:34;;;;;;;3.53;3.00;;;;;;;;;;4936190;28;20055;-79
2021/07/08 13:36:24;;;;;;;3.92;2.92;;;;;;;;;;4937643;28;20587;-78
2021/07/08 13:39:02;;;;;;;6.10;2.85;;;;;;;;;;4936684;28;20408;-78
2021/07/08 13:41:30;;;;;;;3.83;2.80;;;;;;;;;;4939192;28;20036;-78
2021/07/08 13:44:05;;;;;;;5.20;2.90;;;;;;;;;;4940512;28;20059;-77
2021/07/08 13:46:41;;;;;;;4.65;2.53;;;;;;;;;;4939552;28;20039;-79
2021/07/08 13:49:15;;;;;;;4.50;2.55;;;;;;;;;;4954718;28;20160;-78
2021/07/08 13:51:55;;;;;;;4.28;2.95;;;;;;;;;;4936298;28;20055;-79
2021/07/08 13:54:22;;;;;;;6.05;3.30;;;;;;;;;;4954373;28;20091;-78
2021/07/08 13:56:50;;;;;;;3.80;2.80;;;;;;;;;;4935652;28;20465;-79
2021/07/08 13:59:16;;;;;;;3.53;3.10;;;;;;;;;;4940473;28;20524;-79
2021/07/08 14:01:43;;;;;;;5.07;3.10;;;;;;;;;;4938408;28;20575;-78
2021/07/08 14:04:09;;;;;;;5.25;2.75;;;;;;;;;;4940656;28;20070;-79
2021/07/08 14:06:36;;;;;;;4.25;2.97;;;;;;;;;;4940435;28;20063;-78
2021/07/08 14:09:04;;;;;;;6.03;4.28;;;;;;;;;;4937070;28;20070;-79
2021/07/08 14:11:31;;;;;;;3.80;3.28;;;;;;;;;;4941873;28;20063;-78
2021/07/08 14:13:57;;;;;;;5.43;3.50;;;;;;;;;;4945917;28;20148;-79
2021/07/08 14:16:25;;;;;;;4.97;3.58;;;;;;;;;;4938299;28;20062;-79
2021/07/08 14:18:52;;;;;;;3.90;3.50;;;;;;;;;;4951459;28;20159;-75
2021/07/08 14:21:19;;;;;;;4.28;3.28;;;;;;;;;;4946842;28;20134;-74
2021/07/08 14:23:49;;;;;;;4.88;3.10;;;;;;;;;;4940094;28;20586;-74
2021/07/08 14:26:16;;;;;;;3.88;3.25;;;;;;;;;;4946872;28;20086;-74
2021/07/08 14:28:43;;;;;;;4.80;3.42;;;;;;;;;;4936465;28;20074;-74
2021/07/08 14:31:09;;;;;;;4.10;3.60;;;;;;;;;;4948513;28;20447;-74
2021/07/08 14:33:36;;;;;;;7.35;3.65;;;;;;;;;;4948951;28;20078;-74
2021/07/08 14:36:04;;;;;;;4.00;3.40;;;;;;;;;;4946480;28;20075;-75
2021/07/08 14:38:31;;;;;;;4.63;3.30;;;;;;;;;;4947178;28;20609;-74
2021/07/08 14:40:58;;;;;;;6.30;3.67;;;;;;;;;;4946404;28;20059;-75
2021/07/08 14:43:48;;;;;;;4.53;3.40;;;;;;;;;;4940850;28;20086;-75
2021/07/08 14:46:17;;;;;;;8.80;3.67;;;;;;;;;;4943192;28;20059;-75
2021/07/08 14:48:49;;;;;;;6.00;3.72;;;;;;;;;;4947880;28;20054;-76
2021/07/08 14:51:18;;;;;;;5.57;3.13;;;;;;;;;;4946358;28;20031;-76
2021/07/08 14:53:45;;;;;;;5.35;3.67;;;;;;;;;;4940857;28;20036;-75
2021/07/08 14:56:11;;;;;;;5.43;3.13;;;;;;;;;;4948142;28;20424;-76